Time;durP1;ratioP1;P1;durP2;ratioP2;P2;SDS_P1;SDS_P2;PMS_P1;PMS_P2;Temp;Humidity;BMP_temperature;BMP_pressure;BME280_temperature;BME280_humidity;BME280_pressure;Samples;Min_cycle;Max_cycle;Signal;HPM_P1;HPM_P2
2021/06/19 00:00:22;;;;;;;3.78;3.13;;;26.40;57.80;;;;;;5049759;28;20106;-54
2021/06/19 00:02:50;;;;;;;4.15;3.22;;;26.40;57.90;;;;;;5053243;28;20114;-52
2021/06/19 00:05:18;;;;;;;3.65;3.30;;;26.40;57.90;;;;;;5054561;28;20080;-52
2021/06/19 00:07:46;;;;;;;3.80;3.35;;;26.40;57.90;;;;;;5053065;28;20048;-51
2021/06/19 00:10:15;;;;;;;4.18;3.70;;;26.40;57.90;;;;;;5053370;28;20102;-53
2021/06/19 00:12:45;;;;;;;3.50;3.10;;;26.40;57.90;;;;;;5053423;28;20048;-55
2021/06/19 00:15:15;;;;;;;4.05;3.20;;;26.40;57.90;;;;;;5052014;28;20041;-55
2021/06/19 00:17:43;;;;;;;4.38;3.50;;;26.40;58.50;;;;;;5043339;28;20050;-54
2021/06/19 00:20:14;;;;;;;3.55;3.08;;;26.40;57.90;;;;;;5044582;28;20095;-54
2021/06/19 00:22:42;;;;;;;3.53;3.20;;;26.40;57.90;;;;;;5060763;28;20049;-52
2021/06/19 00:25:11;;;;;;;4.60;3.58;;;26.40;57.90;;;;;;5078005;28;20052;-53
2021/06/19 00:27:39;;;;;;;5.00;3.30;;;26.40;58.00;;;;;;5052929;28;20390;-54
2021/06/19 00:30:09;;;;;;;4.50;3.80;;;26.40;58.00;;;;;;5053010;28;20118;-54
2021/06/19 00:32:37;;;;;;;3.85;3.35;;;26.40;58.00;;;;;;5054191;28;20086;-56
2021/06/19 00:35:05;;;;;;;4.00;3.58;;;26.40;58.00;;;;;;5048876;28;20069;-53
2021/06/19 00:37:33;;;;;;;3.60;3.30;;;26.40;58.00;;;;;;5039606;28;20044;-52
2021/06/19 00:40:03;;;;;;;3.63;3.33;;;26.40;58.00;;;;;;5053661;28;20549;-51
2021/06/19 00:42:30;;;;;;;5.30;3.47;;;26.40;58.60;;;;;;5052811;28;20045;-56
2021/06/19 00:44:58;;;;;;;5.38;3.42;;;26.40;58.00;;;;;;5052152;28;20123;-56
2021/06/19 00:47:26;;;;;;;4.07;3.63;;;26.40;58.10;;;;;;5053942;28;20059;-54
2021/06/19 00:49:53;;;;;;;4.47;3.25;;;26.40;58.10;;;;;;5035002;28;20136;-51
2021/06/19 00:52:21;;;;;;;4.03;3.40;;;26.40;58.10;;;;;;5034941;28;20493;-53
2021/06/19 00:54:48;;;;;;;5.13;3.15;;;26.40;58.10;;;;;;5052960;28;20505;-54
2021/06/19 00:57:16;;;;;;;5.15;3.58;;;26.30;58.60;;;;;;5053886;28;20734;-52
2021/06/19 00:59:44;;;;;;;4.57;3.50;;;26.40;58.10;;;;;;5052433;28;20437;-54
2021/06/19 01:02:11;;;;;;;3.92;3.38;;;26.40;58.10;;;;;;5053367;28;20048;-49
2021/06/19 01:04:39;;;;;;;4.43;3.40;;;26.30;58.00;;;;;;5053503;28;20076;-51
2021/06/19 01:07:06;;;;;;;3.75;3.30;;;26.40;58.10;;;;;;5052157;28;20045;-52
2021/06/19 01:09:33;;;;;;;4.07;3.53;;;26.30;58.10;;;;;;5050956;28;20087;-57
2021/06/19 01:12:01;;;;;;;3.53;3.17;;;26.30;58.10;;;;;;5050922;28;20099;-55
2021/06/19 01:14:28;;;;;;;6.00;3.60;;;26.30;58.10;;;;;;5052351;28;20099;-54
2021/06/19 01:16:55;;;;;;;3.67;3.30;;;26.30;58.10;;;;;;5051985;28;20045;-56
2021/06/19 01:19:23;;;;;;;4.38;3.60;;;26.30;58.10;;;;;;5051989;28;20272;-52
2021/06/19 01:21:54;;;;;;;4.00;2.88;;;26.30;58.10;;;;;;5051879;28;20626;-54
2021/06/19 01:24:23;;;;;;;4.70;3.53;;;26.30;58.20;;;;;;5052975;28;20076;-56
2021/06/19 01:26:51;;;;;;;4.22;3.55;;;26.30;58.20;;;;;;5051918;28;20090;-55
2021/06/19 01:29:19;;;;;;;4.50;3.50;;;26.30;58.20;;;;;;5051726;28;20078;-50
2021/06/19 01:31:46;;;;;;;4.30;3.55;;;26.30;58.20;;;;;;5046149;28;20041;-52
2021/06/19 01:34:14;;;;;;;3.92;3.33;;;26.30;58.20;;;;;;5035924;28;20100;-53
2021/06/19 01:36:41;;;;;;;4.00;3.60;;;26.30;58.20;;;;;;5041185;28;20041;-53
2021/06/19 01:39:08;;;;;;;4.47;3.58;;;26.30;58.20;;;;;;5050185;28;20387;-54
2021/06/19 01:41:37;;;;;;;3.88;3.47;;;26.30;58.20;;;;;;5038714;28;20047;-52
2021/06/19 01:44:09;;;;;;;3.90;3.40;;;26.30;58.20;;;;;;5050933;28;20070;-53
2021/06/19 01:46:40;;;;;;;5.25;3.72;;;26.30;58.20;;;;;;5050553;28;20492;-56
2021/06/19 01:49:08;;;;;;;3.45;3.15;;;26.30;58.20;;;;;;5037397;28;20126;-57
2021/06/19 01:51:36;;;;;;;3.92;3.40;;;26.30;58.20;;;;;;5051903;28;20040;-50
2021/06/19 01:54:03;;;;;;;3.97;3.55;;;26.30;58.30;;;;;;5053053;28;20531;-58
2021/06/19 01:56:30;;;;;;;4.07;3.53;;;26.30;58.30;;;;;;5051990;28;20120;-56
2021/06/19 01:58:57;;;;;;;4.53;3.67;;;26.30;58.20;;;;;;5067398;28;20057;-58
2021/06/19 02:01:25;;;;;;;3.92;3.45;;;26.30;58.30;;;;;;5052199;28;20453;-57
2021/06/19 02:03:53;;;;;;;3.85;3.28;;;26.30;58.30;;;;;;5050590;28;20083;-56
2021/06/19 02:06:20;;;;;;;4.10;3.50;;;26.30;58.30;;;;;;5055396;28;20528;-55
2021/06/19 02:09:06;;;;;;;3.97;3.58;;;26.30;58.30;;;;;;5054327;28;20136;-54
2021/06/19 02:11:36;;;;;;;4.05;3.65;;;26.30;58.30;;;;;;5055686;28;20056;-54
2021/06/19 02:14:05;;;;;;;4.97;3.85;;;26.30;58.30;;;;;;5040563;28;20103;-54
2021/06/19 02:16:33;;;;;;;4.55;3.75;;;26.30;58.40;;;;;;5054119;28;20045;-58
2021/06/19 02:19:00;;;;;;;4.60;4.00;;;26.30;58.40;;;;;;5056655;28;20067;-56
2021/06/19 02:21:28;;;;;;;4.18;3.70;;;26.30;58.40;;;;;;5055462;28;20045;-58
2021/06/19 02:23:55;;;;;;;4.80;3.70;;;26.30;58.40;;;;;;5055090;28;20134;-57
2021/06/19 02:26:22;;;;;;;3.70;3.30;;;26.30;58.40;;;;;;5043821;28;20055;-56
2021/06/19 02:28:49;;;;;;;4.63;3.55;;;26.30;58.40;;;;;;5053864;28;20558;-58
2021/06/19 02:31:16;;;;;;;4.55;3.42;;;26.30;58.40;;;;;;5063785;28;20045;-55
2021/06/19 02:33:46;;;;;;;4.60;4.00;;;26.30;58.40;;;;;;5062110;28;20049;-58
2021/06/19 02:36:16;;;;;;;5.38;3.50;;;26.30;58.50;;;;;;5054022;28;20077;-55
2021/06/19 02:38:44;;;;;;;5.88;4.18;;;26.30;58.40;;;;;;5048878;28;20061;-58
2021/06/19 02:41:13;;;;;;;4.30;3.65;;;26.30;58.40;;;;;;5046437;28;20123;-50
2021/06/19 02:43:40;;;;;;;5.65;3.47;;;26.30;58.50;;;;;;5049125;28;20390;-53
2021/06/19 02:46:08;;;;;;;4.43;3.97;;;26.30;58.50;;;;;;5042723;28;20045;-52
2021/06/19 02:48:36;;;;;;;3.92;3.60;;;26.30;58.40;;;;;;5054803;28;20045;-55
2021/06/19 02:51:03;;;;;;;3.95;3.55;;;26.30;58.50;;;;;;5054904;28;20091;-55
2021/06/19 02:53:30;;;;;;;5.78;3.55;;;26.30;58.50;;;;;;5055529;28;20041;-55
2021/06/19 02:55:57;;;;;;;4.45;4.00;;;26.30;58.50;;;;;;5054765;28;20044;-54
2021/06/19 02:58:25;;;;;;;4.53;3.67;;;26.30;58.50;;;;;;5053453;28;20085;-54
2021/06/19 03:00:53;;;;;;;4.15;3.58;;;26.30;58.50;;;;;;5054039;28;20037;-53
2021/06/19 03:03:20;;;;;;;6.80;3.90;;;26.30;58.50;;;;;;5037002;28;20053;-54
2021/06/19 03:05:48;;;;;;;4.55;4.05;;;26.30;58.50;;;;;;5055589;28;20056;-57
2021/06/19 03:08:15;;;;;;;4.53;3.75;;;26.30;58.50;;;;;;5037228;28;20050;-55
2021/06/19 03:10:42;;;;;;;6.35;3.58;;;26.30;58.50;;;;;;5037528;28;20046;-56
2021/06/19 03:13:09;;;;;;;3.60;3.30;;;26.30;58.50;;;;;;5054555;28;20040;-56
2021/06/19 03:15:37;;;;;;;4.35;3.72;;;26.30;58.50;;;;;;5053885;28;20045;-56
2021/06/19 03:18:05;;;;;;;4.47;3.70;;;26.30;58.50;;;;;;5040706;28;20148;-53
2021/06/19 03:20:32;;;;;;;5.70;4.05;;;26.30;58.50;;;;;;5037844;28;20060;-52
2021/06/19 03:23:01;;;;;;;4.10;3.70;;;26.30;58.50;;;;;;5049520;28;20049;-55
2021/06/19 03:25:31;;;;;;;6.20;4.22;;;26.30;58.50;;;;;;5054133;28;20045;-56
2021/06/19 03:28:03;;;;;;;5.35;4.20;;;26.30;58.50;;;;;;5043807;28;20182;-55
2021/06/19 03:30:33;;;;;;;3.45;3.15;;;26.30;58.50;;;;;;5049176;28;20053;-56
2021/06/19 03:33:00;;;;;;;4.43;3.88;;;26.30;58.50;;;;;;5044613;28;20128;-54
2021/06/19 03:35:28;;;;;;;4.30;3.88;;;26.30;58.40;;;;;;5038516;28;20049;-52
2021/06/19 03:37:56;;;;;;;4.13;3.40;;;26.30;58.40;;;;;;5038636;28;20046;-54
2021/06/19 03:40:25;;;;;;;6.00;3.53;;;26.30;58.40;;;;;;5046483;28;20080;-55
2021/06/19 03:42:53;;;;;;;4.50;3.67;;;26.30;58.40;;;;;;5053898;28;20091;-55
2021/06/19 03:45:23;;;;;;;4.82;3.67;;;26.30;58.40;;;;;;5051847;28;20051;-56
2021/06/19 03:47:50;;;;;;;4.82;3.58;;;26.30;58.40;;;;;;5052542;28;20045;-56
2021/06/19 03:50:19;;;;;;;4.13;3.63;;;26.30;58.40;;;;;;5048291;28;20132;-50
2021/06/19 03:52:52;;;;;;;4.03;3.63;;;26.30;58.30;;;;;;5042275;28;20045;-54
2021/06/19 03:55:19;;;;;;;5.43;4.25;;;26.30;58.30;;;;;;5048032;28;20124;-52
2021/06/19 03:57:47;;;;;;;4.10;3.65;;;26.40;58.40;;;;;;5040548;28;20056;-51
2021/06/19 04:00:18;;;;;;;4.38;3.97;;;26.40;58.40;;;;;;5050702;28;20438;-54
2021/06/19 04:02:47;;;;;;;4.30;3.47;;;26.40;58.30;;;;;;5039525;28;20048;-52
2021/06/19 04:05:15;;;;;;;5.40;4.22;;;26.40;58.30;;;;;;5053219;28;20059;-56
2021/06/19 04:07:46;;;;;;;6.15;3.78;;;26.40;58.30;;;;;;5037789;28;20106;-49
2021/06/19 04:10:15;;;;;;;3.80;3.38;;;26.40;58.30;;;;;;5053330;28;20049;-58
2021/06/19 04:12:43;;;;;;;4.70;4.10;;;26.40;58.30;;;;;;5036533;28;20401;-51
2021/06/19 04:15:11;;;;;;;4.28;3.88;;;26.40;58.20;;;;;;5035708;28;20532;-54
2021/06/19 04:17:40;;;;;;;5.72;3.65;;;26.40;58.20;;;;;;5033860;28;20046;-57
2021/06/19 04:20:10;;;;;;;4.88;4.00;;;26.50;58.20;;;;;;5036537;28;20081;-57
2021/06/19 04:22:38;;;;;;;4.95;4.07;;;26.50;58.10;;;;;;5053175;28;20496;-57
2021/06/19 04:25:07;;;;;;;4.13;3.72;;;26.60;58.00;;;;;;5054500;28;20044;-52
2021/06/19 04:27:44;;;;;;;4.60;3.88;;;26.60;58.00;;;;;;5045890;28;20060;-52
2021/06/19 04:30:14;;;;;;;5.35;4.00;;;26.60;57.80;;;;;;5053092;28;20095;-58
2021/06/19 04:32:44;;;;;;;5.78;3.90;;;26.60;57.80;;;;;;5036973;28;20115;-57
2021/06/19 04:35:14;;;;;;;3.85;3.38;;;26.60;57.80;;;;;;5053422;28;20041;-54
2021/06/19 04:37:43;;;;;;;4.05;3.65;;;26.70;57.70;;;;;;5054100;28;20077;-56
2021/06/19 04:42:41;;;;;;;5.20;3.95;;;26.70;57.60;;;;;;5048989;28;20050;-55
2021/06/19 04:45:11;;;;;;;4.20;3.80;;;26.80;57.60;;;;;;5042214;28;20052;-56
2021/06/19 04:47:39;;;;;;;5.40;3.90;;;26.80;57.50;;;;;;5048813;28;20051;-58
2021/06/19 04:50:09;;;;;;;4.30;3.88;;;26.80;57.40;;;;;;5051621;28;20106;-58
2021/06/19 04:52:42;;;;;;;5.15;3.92;;;26.90;57.40;;;;;;5051198;28;20048;-53
2021/06/19 04:55:12;;;;;;;3.78;3.42;;;26.90;57.30;;;;;;5053876;28;20500;-55
2021/06/19 04:57:40;;;;;;;7.43;4.07;;;26.90;57.30;;;;;;5052138;28;20552;-58
2021/06/19 05:00:12;;;;;;;4.28;3.85;;;26.90;57.20;;;;;;5052134;28;20049;-53
2021/06/19 05:02:40;;;;;;;4.07;3.42;;;27.00;57.20;;;;;;5052532;28;20053;-55
2021/06/19 05:05:08;;;;;;;4.22;3.53;;;27.00;57.20;;;;;;5044243;28;20041;-56
2021/06/19 05:07:35;;;;;;;5.03;3.47;;;27.00;57.10;;;;;;5042312;28;20505;-51
2021/06/19 05:10:05;;;;;;;4.03;3.63;;;27.10;57.10;;;;;;5053697;28;20137;-53
2021/06/19 05:12:34;;;;;;;4.43;3.78;;;27.10;57.00;;;;;;5046512;28;20100;-55
2021/06/19 05:15:04;;;;;;;3.90;3.60;;;27.10;56.90;;;;;;5042663;28;20182;-55
2021/06/19 05:17:32;;;;;;;3.85;3.42;;;27.10;56.90;;;;;;5053260;28;20040;-54
2021/06/19 05:19:59;;;;;;;4.50;3.65;;;27.10;56.80;;;;;;5053320;28;20103;-54
2021/06/19 05:22:26;;;;;;;4.78;3.80;;;27.20;56.80;;;;;;5049934;28;20045;-53
2021/06/19 05:24:53;;;;;;;5.97;3.92;;;27.20;56.80;;;;;;5039204;28;20179;-56
2021/06/19 05:27:21;;;;;;;4.47;3.95;;;27.20;56.70;;;;;;5050846;28;20080;-57
2021/06/19 05:29:48;;;;;;;5.53;3.58;;;27.20;56.70;;;;;;5053267;28;20128;-55
2021/06/19 05:32:15;;;;;;;4.55;3.83;;;27.20;56.60;;;;;;5053339;28;20088;-53
2021/06/19 05:34:43;;;;;;;4.63;4.00;;;27.20;56.50;;;;;;5052140;28;20095;-54
2021/06/19 05:37:13;;;;;;;4.63;3.53;;;27.30;56.60;;;;;;5051050;28;20076;-54
2021/06/19 05:39:40;;;;;;;4.07;3.67;;;27.30;56.50;;;;;;5052473;28;20045;-53
2021/06/19 05:42:08;;;;;;;5.80;4.22;;;27.30;56.50;;;;;;5056182;28;20049;-52
2021/06/19 05:44:35;;;;;;;4.10;3.70;;;27.30;56.50;;;;;;5054389;28;20049;-55
2021/06/19 05:47:03;;;;;;;4.57;3.42;;;27.30;56.50;;;;;;5056279;28;20049;-52
2021/06/19 05:49:40;;;;;;;4.00;3.60;;;27.30;56.50;;;;;;5041201;28;20080;-54
2021/06/19 05:52:08;;;;;;;4.35;3.80;;;27.30;56.40;;;;;;5039336;28;20053;-54
2021/06/19 05:54:38;;;;;;;4.65;4.10;;;27.30;56.40;;;;;;5039314;28;20440;-57
2021/06/19 05:57:06;;;;;;;3.85;3.53;;;27.30;57.00;;;;;;5039768;28;20118;-53
2021/06/19 05:59:35;;;;;;;4.25;3.85;;;27.30;56.40;;;;;;5052956;28;20136;-52
2021/06/19 06:02:03;;;;;;;5.07;3.70;;;27.30;56.40;;;;;;5055742;28;20100;-54
2021/06/19 06:04:32;;;;;;;3.88;3.58;;;27.30;56.40;;;;;;5044190;28;20132;-53
2021/06/19 06:06:59;;;;;;;3.60;3.30;;;27.30;56.40;;;;;;5049688;28;20560;-54
2021/06/19 06:09:27;;;;;;;5.95;3.97;;;27.30;56.40;;;;;;5046081;28;20063;-56
2021/06/19 06:11:54;;;;;;;6.55;3.70;;;27.30;56.30;;;;;;5039373;28;20444;-56
2021/06/19 06:14:21;;;;;;;4.22;3.80;;;27.30;56.40;;;;;;5038919;28;20506;-54
2021/06/19 06:16:48;;;;;;;4.43;3.97;;;27.30;56.30;;;;;;5045751;28;20072;-51
2021/06/19 06:19:18;;;;;;;4.82;3.70;;;27.40;56.40;;;;;;5054177;28;20123;-55
2021/06/19 06:21:47;;;;;;;4.93;3.92;;;27.40;56.40;;;;;;5056222;28;20049;-54
2021/06/19 06:24:15;;;;;;;4.15;3.75;;;27.40;57.00;;;;;;5056459;28;20451;-58
2021/06/19 06:26:44;;;;;;;4.22;3.83;;;27.40;56.40;;;;;;5056506;28;20072;-54
2021/06/19 06:29:12;;;;;;;4.68;3.83;;;27.40;56.40;;;;;;5054154;28;20045;-53
2021/06/19 06:31:52;;;;;;;3.75;3.42;;;27.40;56.40;;;;;;5055040;28;20049;-53
2021/06/19 06:34:20;;;;;;;4.35;3.70;;;27.40;56.40;;;;;;5054725;28;20045;-59
2021/06/19 06:36:48;;;;;;;5.10;3.75;;;27.40;56.40;;;;;;5055112;28;20117;-57
2021/06/19 06:39:15;;;;;;;4.22;3.47;;;27.40;56.40;;;;;;5054073;28;20068;-58
2021/06/19 06:41:43;;;;;;;3.67;3.30;;;27.40;56.30;;;;;;5055665;28;20048;-58
2021/06/19 06:44:10;;;;;;;3.95;3.55;;;27.40;56.30;;;;;;5036209;28;20057;-55
2021/06/19 06:46:38;;;;;;;4.07;3.72;;;27.40;56.30;;;;;;5037368;28;20053;-58
2021/06/19 06:49:06;;;;;;;3.90;3.45;;;27.40;56.30;;;;;;5071538;28;20048;-54
2021/06/19 06:51:35;;;;;;;4.50;3.95;;;27.40;56.30;;;;;;5037107;28;20395;-55
2021/06/19 06:54:02;;;;;;;3.95;3.60;;;27.40;56.20;;;;;;5037531;28;20053;-53
2021/06/19 06:56:29;;;;;;;3.92;3.53;;;27.40;56.20;;;;;;5038106;28;20052;-58
2021/06/19 06:58:56;;;;;;;4.72;3.90;;;27.40;56.20;;;;;;5039156;28;20077;-58
2021/06/19 07:01:24;;;;;;;4.50;4.10;;;27.40;56.20;;;;;;5052996;28;20041;-58
2021/06/19 07:03:55;;;;;;;5.40;3.92;;;27.40;56.20;;;;;;5054755;28;20064;-59
2021/06/19 07:06:23;;;;;;;3.10;2.80;;;27.40;56.20;;;;;;5054646;28;20056;-52
2021/06/19 07:08:52;;;;;;;4.35;3.63;;;27.40;56.20;;;;;;5054696;28;20075;-58
2021/06/19 07:11:20;;;;;;;4.18;3.65;;;27.50;56.20;;;;;;5055227;28;20053;-54
2021/06/19 07:13:48;;;;;;;4.18;3.40;;;27.40;56.20;;;;;;5044011;28;20042;-56
2021/06/19 07:16:15;;;;;;;3.53;3.22;;;27.50;56.20;;;;;;5039284;28;20592;-52
2021/06/19 07:18:44;;;;;;;5.97;3.60;;;27.50;56.20;;;;;;5047165;28;20045;-56
2021/06/19 07:21:12;;;;;;;3.72;3.17;;;27.50;56.10;;;;;;5053975;28;20041;-54
2021/06/19 07:23:40;;;;;;;4.07;3.47;;;27.50;56.10;;;;;;5054123;28;20053;-54
2021/06/19 07:26:07;;;;;;;5.18;3.47;;;27.50;56.10;;;;;;5060100;28;20048;-54
2021/06/19 07:28:34;;;;;;;4.00;3.60;;;27.50;56.10;;;;;;5058205;28;20390;-53
2021/06/19 07:31:01;;;;;;;5.82;3.67;;;27.50;56.10;;;;;;5054857;28;20072;-56
2021/06/19 07:33:29;;;;;;;3.78;3.33;;;27.50;56.10;;;;;;5053837;28;20053;-56
2021/06/19 07:35:57;;;;;;;4.03;3.63;;;27.50;56.00;;;;;;5051920;28;20041;-54
2021/06/19 07:38:24;;;;;;;3.80;3.28;;;27.50;56.00;;;;;;5037594;28;20072;-56
2021/06/19 07:40:52;;;;;;;4.07;3.63;;;27.60;56.00;;;;;;5037167;28;20044;-58
2021/06/19 07:43:22;;;;;;;3.65;3.35;;;27.60;55.90;;;;;;5037561;28;20048;-54
2021/06/19 07:45:50;;;;;;;3.92;3.53;;;27.60;55.80;;;;;;5047468;28;20047;-57
2021/06/19 07:48:17;;;;;;;4.85;3.67;;;27.60;55.80;;;;;;5054987;28;20127;-55
2021/06/19 07:50:45;;;;;;;3.78;3.47;;;27.60;55.80;;;;;;5036857;28;20452;-54
2021/06/19 07:53:12;;;;;;;4.22;3.05;;;27.60;55.80;;;;;;5036447;28;20103;-54
2021/06/19 07:55:39;;;;;;;3.92;3.53;;;27.70;55.90;;;;;;5035979;28;20072;-57
2021/06/19 07:58:07;;;;;;;4.95;3.50;;;27.60;55.80;;;;;;5052446;28;20128;-57
2021/06/19 08:00:34;;;;;;;3.72;3.42;;;27.70;55.80;;;;;;5053192;28;20048;-54
2021/06/19 08:03:01;;;;;;;3.83;3.42;;;27.70;55.80;;;;;;5052859;28;20107;-56
2021/06/19 08:05:29;;;;;;;4.20;3.80;;;27.70;55.80;;;;;;5039290;28;20571;-51
2021/06/19 08:07:57;;;;;;;3.75;3.45;;;27.80;55.80;;;;;;5038236;28;20465;-57
2021/06/19 08:10:26;;;;;;;3.72;3.13;;;27.80;55.70;;;;;;5051023;28;20460;-58
2021/06/19 08:12:54;;;;;;;4.55;4.05;;;27.80;55.60;;;;;;5053073;28;20114;-55
2021/06/19 08:15:22;;;;;;;4.30;3.85;;;27.80;55.50;;;;;;5063781;28;20044;-54
2021/06/19 08:17:49;;;;;;;5.65;3.78;;;27.80;55.50;;;;;;5060787;28;20041;-55
2021/06/19 08:20:18;;;;;;;4.10;3.70;;;27.80;55.50;;;;;;5053099;28;20044;-55
2021/06/19 08:22:47;;;;;;;3.65;3.30;;;27.80;55.60;;;;;;5053115;28;20096;-55
2021/06/19 08:25:15;;;;;;;3.53;3.22;;;27.80;55.60;;;;;;5046151;28;20060;-57
2021/06/19 08:27:42;;;;;;;3.97;3.58;;;27.80;55.60;;;;;;5043207;28;20099;-54
2021/06/19 08:30:11;;;;;;;4.25;3.55;;;27.80;55.60;;;;;;5051842;28;20095;-58
2021/06/19 08:32:39;;;;;;;3.92;3.30;;;27.80;55.60;;;;;;5052966;28;20503;-58
2021/06/19 08:35:07;;;;;;;6.25;3.47;;;27.80;55.60;;;;;;5048571;28;20119;-55
2021/06/19 08:37:35;;;;;;;3.90;3.50;;;27.80;55.70;;;;;;5037328;28;20599;-55
2021/06/19 08:40:04;;;;;;;3.88;3.47;;;27.70;55.70;;;;;;5039270;28;20045;-56
2021/06/19 08:42:31;;;;;;;4.45;4.05;;;27.80;55.70;;;;;;5053920;28;20127;-53
2021/06/19 08:44:59;;;;;;;3.90;3.50;;;27.80;55.70;;;;;;5051023;28;20477;-55
2021/06/19 08:47:34;;;;;;;4.03;3.63;;;27.80;55.70;;;;;;5036535;28;20496;-57
2021/06/19 08:50:08;;;;;;;4.07;3.50;;;27.70;55.70;;;;;;5052439;28;20559;-55
2021/06/19 08:52:38;;;;;;;6.03;3.60;;;27.80;55.80;;;;;;5051491;28;20041;-57
2021/06/19 08:55:11;;;;;;;4.10;3.70;;;27.80;55.80;;;;;;5053203;28;20064;-54
2021/06/19 08:57:38;;;;;;;3.70;3.40;;;27.80;55.80;;;;;;5035840;28;20066;-58
2021/06/19 09:00:07;;;;;;;3.67;3.35;;;27.70;55.80;;;;;;5053168;28;20080;-53
2021/06/19 09:02:35;;;;;;;4.78;3.78;;;27.70;55.80;;;;;;5035653;28;20130;-55
2021/06/19 09:05:08;;;;;;;4.00;3.60;;;27.70;55.90;;;;;;5035262;28;20084;-55
2021/06/19 09:07:44;;;;;;;3.50;3.20;;;27.70;55.90;;;;;;5052015;28;20451;-51
2021/06/19 09:10:19;;;;;;;4.32;3.70;;;27.70;55.90;;;;;;5070642;28;20094;-55
2021/06/19 09:12:57;;;;;;;3.85;3.55;;;27.70;55.90;;;;;;5051318;28;20048;-55
2021/06/19 09:15:30;;;;;;;3.97;3.58;;;27.70;55.90;;;;;;5050352;28;20559;-52
2021/06/19 09:18:20;;;;;;;3.85;3.50;;;27.70;55.90;;;;;;5051539;28;20049;-58
2021/06/19 09:20:50;;;;;;;3.83;3.53;;;27.70;55.90;;;;;;5030433;28;20068;-56
2021/06/19 09:23:29;;;;;;;4.25;3.60;;;27.70;55.90;;;;;;5052288;28;20079;-54
2021/06/19 09:26:16;;;;;;;3.83;3.40;;;27.70;56.00;;;;;;5051832;28;20515;-54
2021/06/19 09:29:00;;;;;;;3.95;3.55;;;27.70;56.00;;;;;;5051766;28;20045;-54
2021/06/19 09:31:43;;;;;;;4.93;3.88;;;27.70;56.00;;;;;;5048637;28;20399;-55
2021/06/19 09:34:44;;;;;;;4.28;3.88;;;27.70;56.00;;;;;;5040302;28;20053;-56
2021/06/19 09:37:12;;;;;;;4.78;4.00;;;27.80;56.00;;;;;;5042629;28;20049;-54
2021/06/19 09:39:39;;;;;;;4.25;3.85;;;27.70;55.90;;;;;;5043245;28;20075;-56
2021/06/19 09:42:11;;;;;;;5.60;3.97;;;27.70;55.90;;;;;;5044759;28;20410;-51
2021/06/19 09:44:46;;;;;;;5.03;3.85;;;27.80;56.00;;;;;;5041355;28;20103;-53
2021/06/19 09:47:19;;;;;;;4.32;3.92;;;27.80;56.00;;;;;;5053004;28;20102;-55
2021/06/19 09:49:49;;;;;;;4.03;3.63;;;27.80;56.00;;;;;;5053213;28;20068;-53
2021/06/19 09:52:28;;;;;;;4.18;3.67;;;27.80;56.00;;;;;;5046131;28;20062;-55
2021/06/19 09:54:58;;;;;;;4.60;3.70;;;27.80;56.00;;;;;;5036607;28;20141;-56
2021/06/19 09:57:46;;;;;;;4.70;4.05;;;27.80;55.90;;;;;;5040318;28;20099;-57
2021/06/19 10:00:16;;;;;;;4.28;3.65;;;27.80;56.00;;;;;;5051555;28;20095;-56
2021/06/19 10:02:44;;;;;;;4.43;4.03;;;27.80;55.90;;;;;;5051670;28;20045;-53
2021/06/19 10:05:12;;;;;;;4.40;4.00;;;27.80;55.90;;;;;;5051581;28;20041;-52
2021/06/19 10:07:40;;;;;;;4.05;3.65;;;27.80;56.40;;;;;;5055966;28;20078;-53
2021/06/19 10:10:12;;;;;;;5.68;4.45;;;27.80;55.80;;;;;;5078643;28;20048;-56
2021/06/19 10:12:41;;;;;;;6.75;4.00;;;27.80;55.80;;;;;;5051593;28;20095;-54
2021/06/19 10:15:13;;;;;;;4.50;4.10;;;27.80;55.90;;;;;;5047547;28;20038;-56
2021/06/19 10:17:45;;;;;;;4.78;3.80;;;27.80;55.90;;;;;;5038695;28;20041;-56
2021/06/19 10:20:16;;;;;;;4.20;3.80;;;27.80;55.90;;;;;;5048025;28;20093;-56
2021/06/19 10:22:45;;;;;;;5.82;3.63;;;27.80;55.90;;;;;;5043361;28;20077;-56
2021/06/19 10:25:15;;;;;;;5.13;4.13;;;27.80;56.00;;;;;;5050135;28;20448;-52
2021/06/19 10:27:50;;;;;;;4.78;3.85;;;27.80;56.00;;;;;;5043488;28;20458;-55
2021/06/19 10:30:17;;;;;;;4.30;3.90;;;27.80;56.00;;;;;;5040348;28;20056;-58
2021/06/19 10:33:25;;;;;;;4.30;3.83;;;27.80;56.00;;;;;;5051313;28;20077;-57
2021/06/19 10:35:55;;;;;;;3.95;3.58;;;27.80;56.10;;;;;;5044071;28;20048;-54
2021/06/19 10:38:22;;;;;;;5.13;4.07;;;27.80;56.10;;;;;;5055222;28;20098;-56
2021/06/19 10:41:01;;;;;;;4.95;3.92;;;27.80;56.10;;;;;;5054804;28;20049;-54
2021/06/19 10:43:29;;;;;;;5.00;3.95;;;27.80;56.10;;;;;;5052863;28;20129;-56
2021/06/19 10:46:20;;;;;;;5.93;4.10;;;27.70;56.10;;;;;;5048018;28;20452;-58
2021/06/19 10:48:49;;;;;;;5.72;4.15;;;27.70;56.10;;;;;;5045396;28;20049;-56
2021/06/19 10:51:22;;;;;;;4.50;3.83;;;27.80;56.10;;;;;;5056101;28;20095;-55
2021/06/19 10:54:07;;;;;;;5.10;4.27;;;27.70;56.10;;;;;;5055014;28;20091;-55
2021/06/19 10:56:49;;;;;;;4.15;3.75;;;27.70;56.10;;;;;;5055891;28;20647;-56
2021/06/19 10:59:20;;;;;;;4.30;3.90;;;27.80;56.20;;;;;;5054495;28;20132;-56
2021/06/19 11:01:48;;;;;;;4.78;4.28;;;27.70;56.10;;;;;;5054446;28;20046;-53
2021/06/19 11:04:40;;;;;;;4.55;4.13;;;27.80;56.20;;;;;;5053359;28;20515;-56
2021/06/19 11:07:17;;;;;;;5.25;3.97;;;27.70;56.10;;;;;;5054412;28;20095;-56
2021/06/19 11:09:50;;;;;;;4.65;4.13;;;27.70;56.10;;;;;;5054545;28;20076;-56
2021/06/19 11:12:32;;;;;;;4.70;3.95;;;27.80;56.20;;;;;;5054394;28;20045;-54
2021/06/19 11:15:08;;;;;;;4.97;4.20;;;27.70;56.20;;;;;;5054577;28;20044;-55
2021/06/19 11:17:35;;;;;;;4.50;4.10;;;27.70;56.20;;;;;;5043446;28;20057;-55
2021/06/19 11:20:24;;;;;;;5.35;4.13;;;27.70;56.20;;;;;;5044647;28;20041;-55
2021/06/19 11:22:56;;;;;;;4.50;4.10;;;27.70;56.20;;;;;;5037606;28;20494;-54
2021/06/19 11:25:33;;;;;;;5.82;4.22;;;27.70;56.20;;;;;;5051829;28;20048;-56
2021/06/19 11:28:20;;;;;;;4.60;4.10;;;27.70;56.20;;;;;;5054185;28;20052;-57
2021/06/19 11:30:55;;;;;;;4.35;3.80;;;27.80;56.30;;;;;;5054229;28;20179;-58
2021/06/19 11:33:25;;;;;;;5.13;4.63;;;27.70;56.20;;;;;;5040273;28;20119;-58
2021/06/19 11:36:04;;;;;;;4.75;4.35;;;27.70;56.20;;;;;;5037568;28;20512;-55
2021/06/19 11:38:52;;;;;;;5.72;4.05;;;27.70;56.20;;;;;;5036949;28;20069;-57
2021/06/19 11:41:23;;;;;;;4.75;3.97;;;27.70;56.20;;;;;;5054662;28;20492;-56
2021/06/19 11:43:52;;;;;;;4.45;4.05;;;27.70;56.30;;;;;;5040342;28;20453;-54
2021/06/19 11:46:23;;;;;;;5.55;4.30;;;27.70;56.20;;;;;;5053678;28;20045;-56
2021/06/19 11:48:51;;;;;;;4.40;4.00;;;27.70;56.30;;;;;;5039372;28;20390;-56
2021/06/19 11:51:22;;;;;;;4.30;3.90;;;27.70;56.30;;;;;;5051050;28;20105;-54
2021/06/19 11:53:49;;;;;;;5.03;4.13;;;27.70;56.20;;;;;;5054669;28;20083;-56
2021/06/19 11:56:27;;;;;;;5.45;4.15;;;27.70;56.30;;;;;;5052328;28;20095;-55
2021/06/19 11:58:56;;;;;;;6.00;4.07;;;27.70;56.20;;;;;;5053121;28;20516;-56
2021/06/19 12:01:38;;;;;;;6.07;4.50;;;27.70;56.30;;;;;;5053418;28;20052;-54
2021/06/19 12:04:09;;;;;;;4.63;4.10;;;27.70;56.30;;;;;;5054797;28;20102;-55
2021/06/19 12:06:40;;;;;;;4.32;3.75;;;27.70;56.30;;;;;;5053357;28;20072;-55
2021/06/19 12:09:09;;;;;;;5.72;4.30;;;27.70;56.30;;;;;;5053531;28;20382;-55
2021/06/19 12:11:39;;;;;;;4.97;4.07;;;27.70;56.30;;;;;;5053599;28;20045;-54
2021/06/19 12:14:28;;;;;;;5.65;4.07;;;27.70;56.30;;;;;;5053186;28;20098;-54
2021/06/19 12:16:59;;;;;;;6.22;4.35;;;27.70;56.30;;;;;;5054315;28;20053;-55
2021/06/19 12:19:33;;;;;;;4.72;4.20;;;27.70;56.20;;;;;;5054535;28;20083;-55
2021/06/19 12:22:07;;;;;;;4.63;4.15;;;27.70;56.20;;;;;;5040028;28;20076;-50
2021/06/19 12:24:48;;;;;;;7.68;4.43;;;27.80;56.20;;;;;;5049716;28;20489;-51
2021/06/19 12:27:22;;;;;;;5.65;3.97;;;27.80;56.30;;;;;;5052873;28;20052;-51
2021/06/19 12:30:00;;;;;;;5.30;4.32;;;27.70;56.20;;;;;;5053049;28;20455;-54
2021/06/19 12:32:28;;;;;;;4.90;4.40;;;27.80;56.20;;;;;;5038765;28;20069;-52
2021/06/19 12:35:03;;;;;;;4.38;3.67;;;27.80;56.20;;;;;;5050934;28;20081;-52
2021/06/19 12:37:33;;;;;;;5.05;4.25;;;27.80;56.20;;;;;;5037793;28;20122;-54
2021/06/19 12:40:04;;;;;;;5.03;4.53;;;27.80;56.20;;;;;;5050050;28;20041;-52
2021/06/19 12:42:58;;;;;;;4.28;3.88;;;27.80;56.20;;;;;;5052960;28;20111;-51
2021/06/19 12:45:34;;;;;;;4.93;4.10;;;27.80;56.10;;;;;;4962522;28;20061;-53
2021/06/19 12:48:08;;;;;;;5.47;4.40;;;27.80;56.00;;;;;;4984213;28;20523;-56
2021/06/19 12:50:45;;;;;;;5.25;4.20;;;27.90;56.10;;;;;;4974339;28;20054;-49
2021/06/19 12:53:14;;;;;;;4.97;4.05;;;27.90;56.00;;;;;;4986167;28;20046;-55
2021/06/19 12:55:55;;;;;;;4.35;3.95;;;27.90;56.00;;;;;;4986057;28;20586;-53
2021/06/19 12:58:37;;;;;;;5.00;4.50;;;27.90;56.00;;;;;;4986822;28;20523;-56
2021/06/19 13:01:22;;;;;;;6.10;4.57;;;27.90;55.80;;;;;;4955066;28;20048;-55
2021/06/19 13:03:59;;;;;;;5.18;4.50;;;27.90;55.80;;;;;;4970562;28;20046;-53
2021/06/19 13:06:41;;;;;;;5.45;4.40;;;28.00;55.80;;;;;;4971577;28;20054;-53